Time;durP1;ratioP1;P1;durP2;ratioP2;P2;SDS_P1;SDS_P2;PMS_P1;PMS_P2;Temp;Humidity;BMP_temperature;BMP_pressure;BME280_temperature;BME280_humidity;BME280_pressure;Samples;Min_cycle;Max_cycle;Signal;HPM_P1;HPM_P2
2023/12/29 00:01:14;;;;;;;0.20;0.20;;;8.30;99.90;;;;;;5029762;28;20437;-85
2023/12/29 00:03:39;;;;;;;0.20;0.20;;;8.30;99.90;;;;;;5030152;28;20261;-84
2023/12/29 00:06:05;;;;;;;0.20;0.20;;;8.30;99.90;;;;;;5030069;28;20200;-85
2023/12/29 00:08:31;;;;;;;0.20;0.20;;;8.30;99.90;;;;;;5022237;28;20201;-84
2023/12/29 00:10:56;;;;;;;0.20;0.20;;;8.30;99.90;;;;;;5022917;28;20214;-84
2023/12/29 00:13:23;;;;;;;0.20;0.20;;;8.30;99.90;;;;;;5029428;28;20667;-84
2023/12/29 00:15:53;;;;;;;0.20;0.20;;;8.30;99.90;;;;;;5037122;28;20187;-84
2023/12/29 00:18:19;;;;;;;0.20;0.20;;;8.30;99.90;;;;;;5020141;28;20543;-83
2023/12/29 00:20:44;;;;;;;0.20;0.20;;;8.40;99.90;;;;;;5029285;28;21163;-84
2023/12/29 00:23:10;;;;;;;0.20;0.20;;;8.40;99.90;;;;;;5012475;28;20717;-85
2023/12/29 00:25:39;;;;;;;0.20;0.20;;;8.40;99.90;;;;;;5027030;28;20214;-84
2023/12/29 00:28:06;;;;;;;0.20;0.20;;;8.40;99.90;;;;;;5020725;28;20192;-84
2023/12/29 00:30:31;;;;;;;0.20;0.20;;;8.40;99.90;;;;;;5036966;28;20478;-85
2023/12/29 00:32:57;;;;;;;0.20;0.20;;;8.50;99.90;;;;;;5026702;28;20421;-83
2023/12/29 00:35:22;;;;;;;0.20;0.20;;;8.50;99.90;;;;;;5035452;28;20594;-84
2023/12/29 00:37:49;;;;;;;0.20;0.20;;;8.50;99.90;;;;;;5029931;28;20258;-85
2023/12/29 00:40:15;;;;;;;0.20;0.20;;;8.50;99.90;;;;;;5010578;28;20184;-85
2023/12/29 00:42:40;;;;;;;0.20;0.20;;;8.40;99.90;;;;;;5024701;28;20449;-84
2023/12/29 00:45:06;;;;;;;0.20;0.20;;;8.40;99.90;;;;;;5021075;28;20185;-84
2023/12/29 00:47:32;;;;;;;0.20;0.20;;;8.30;99.90;;;;;;5022904;28;20674;-85
2023/12/29 00:49:57;;;;;;;0.20;0.20;;;8.20;99.90;;;;;;5029125;28;20474;-85
2023/12/29 00:52:23;;;;;;;0.20;0.20;;;8.20;99.90;;;;;;5019962;28;20752;-84
2023/12/29 00:54:48;;;;;;;0.20;0.20;;;8.20;99.90;;;;;;5011575;28;20183;-84
2023/12/29 00:57:14;;;;;;;0.20;0.20;;;8.20;99.90;;;;;;5011710;28;20187;-85
2023/12/29 00:59:41;;;;;;;0.20;0.20;;;8.20;99.90;;;;;;5036869;28;20187;-85
2023/12/29 01:02:07;;;;;;;0.20;0.20;;;8.10;99.90;;;;;;5030406;28;20667;-84
2023/12/29 01:04:33;;;;;;;0.20;0.20;;;8.10;99.90;;;;;;5033476;28;20429;-84
2023/12/29 01:06:59;;;;;;;0.20;0.20;;;8.10;99.90;;;;;;5036079;28;20422;-84
2023/12/29 01:09:26;;;;;;;0.30;0.30;;;8.10;99.90;;;;;;5032981;28;20503;-85
2023/12/29 01:11:51;;;;;;;0.20;0.20;;;8.10;99.90;;;;;;5039078;28;20186;-85
2023/12/29 01:14:17;;;;;;;0.20;0.20;;;8.10;99.90;;;;;;5046772;28;20436;-85
2023/12/29 01:16:42;;;;;;;0.60;0.60;;;8.10;99.90;;;;;;5044145;28;20195;-84
2023/12/29 01:19:08;;;;;;;0.20;0.20;;;8.10;99.90;;;;;;5035401;28;20183;-84
2023/12/29 01:21:34;;;;;;;0.20;0.20;;;8.10;99.90;;;;;;5030177;28;20731;-84
2023/12/29 01:24:07;;;;;;;0.30;0.30;;;8.10;99.90;;;;;;5014570;28;20563;-85
2023/12/29 01:26:38;;;;;;;0.30;0.30;;;8.10;99.90;;;;;;5014851;28;21016;-85
2023/12/29 01:29:07;;;;;;;0.20;0.20;;;8.10;99.90;;;;;;5015210;28;21033;-85
2023/12/29 01:31:32;;;;;;;0.20;0.20;;;8.10;99.90;;;;;;5042937;28;20516;-85
2023/12/29 01:33:58;;;;;;;0.20;0.20;;;8.20;99.90;;;;;;5026482;28;20576;-85
2023/12/29 01:36:24;;;;;;;0.20;0.20;;;8.20;99.90;;;;;;5018904;28;20689;-85
2023/12/29 01:38:50;;;;;;;0.30;0.30;;;8.20;99.90;;;;;;5015198;28;20434;-85
2023/12/29 01:41:15;;;;;;;0.20;0.20;;;8.30;99.90;;;;;;5027421;28;20220;-84
2023/12/29 01:44:20;;;;;;;0.20;0.20;;;8.30;99.90;;;;;;5032027;28;20183;-85
2023/12/29 01:46:47;;;;;;;0.30;0.30;;;8.30;99.90;;;;;;5033564;28;20175;-85
2023/12/29 01:49:19;;;;;;;0.30;0.30;;;8.30;99.90;;;;;;5030622;28;20489;-84
2023/12/29 01:51:48;;;;;;;0.20;0.20;;;8.30;99.90;;;;;;5018632;28;20441;-85
2023/12/29 01:54:14;;;;;;;0.30;0.30;;;8.30;99.90;;;;;;5012195;28;20443;-85
2023/12/29 01:56:41;;;;;;;0.30;0.30;;;8.30;99.90;;;;;;5013798;28;20481;-85
2023/12/29 01:59:06;;;;;;;0.30;0.30;;;8.30;99.90;;;;;;5015936;28;20185;-85
2023/12/29 02:01:33;;;;;;;0.30;0.30;;;8.40;99.90;;;;;;5041418;28;20800;-85
2023/12/29 02:03:58;;;;;;;0.30;0.30;;;8.40;99.90;;;;;;5042944;28;20191;-85
2023/12/29 02:06:25;;;;;;;0.30;0.30;;;8.40;99.90;;;;;;5026568;28;20489;-85
2023/12/29 02:08:51;;;;;;;0.30;0.30;;;8.40;99.90;;;;;;5031913;28;20302;-85
2023/12/29 02:11:17;;;;;;;0.30;0.30;;;8.50;99.90;;;;;;5041849;28;20415;-85
2023/12/29 02:13:43;;;;;;;0.30;0.30;;;8.50;99.90;;;;;;5000021;28;20498;-85
2023/12/29 02:16:35;;;;;;;0.30;0.30;;;8.50;99.90;;;;;;5037776;28;20429;-85
2023/12/29 02:19:09;;;;;;;0.30;0.30;;;8.50;99.90;;;;;;5003387;28;20227;-85
2023/12/29 02:21:35;;;;;;;0.40;0.40;;;8.60;99.90;;;;;;5030702;28;20493;-85
2023/12/29 02:24:00;;;;;;;0.33;0.33;;;8.60;99.90;;;;;;5032157;28;20442;-86
2023/12/29 02:26:32;;;;;;;0.40;0.40;;;8.60;99.90;;;;;;5031807;28;20203;-85
2023/12/29 02:29:02;;;;;;;0.53;0.53;;;8.60;99.90;;;;;;5030964;28;20607;-86
2023/12/29 02:31:30;;;;;;;0.50;0.50;;;8.60;99.90;;;;;;5030247;28;20517;-85
2023/12/29 02:33:57;;;;;;;0.37;0.37;;;8.60;99.90;;;;;;5027968;28;20436;-85
2023/12/29 02:36:24;;;;;;;0.70;0.70;;;8.60;99.90;;;;;;5012774;28;20527;-84
2023/12/29 02:38:50;;;;;;;0.50;0.50;;;8.60;99.90;;;;;;5016772;28;20436;-85
2023/12/29 02:41:15;;;;;;;0.40;0.40;;;8.60;99.90;;;;;;5038353;28;20817;-85
2023/12/29 02:43:41;;;;;;;0.40;0.40;;;8.60;99.90;;;;;;5014053;28;20259;-85
2023/12/29 02:46:06;;;;;;;1.10;1.07;;;8.60;99.90;;;;;;5031834;28;20187;-85
2023/12/29 02:48:32;;;;;;;0.60;0.60;;;8.70;99.90;;;;;;5037081;28;20210;-85
2023/12/29 02:50:57;;;;;;;3.10;0.80;;;8.70;99.90;;;;;;5033445;28;20194;-84
2023/12/29 02:53:23;;;;;;;0.40;0.40;;;8.70;99.90;;;;;;5034256;28;20191;-85
2023/12/29 02:55:48;;;;;;;0.40;0.40;;;8.70;99.90;;;;;;5030677;28;20188;-85
2023/12/29 02:58:14;;;;;;;0.50;0.50;;;8.70;99.90;;;;;;5013071;28;20195;-85
2023/12/29 03:00:39;;;;;;;0.40;0.40;;;8.70;99.90;;;;;;5030929;28;20664;-85
2023/12/29 03:03:05;;;;;;;0.60;0.60;;;8.70;99.90;;;;;;5016352;28;20200;-85
2023/12/29 03:05:30;;;;;;;0.50;0.50;;;8.60;99.90;;;;;;5048018;28;20221;-85
2023/12/29 03:07:57;;;;;;;0.50;0.50;;;8.70;99.90;;;;;;5030355;28;20191;-85
2023/12/29 03:10:23;;;;;;;1.10;1.10;;;8.70;99.90;;;;;;5011281;28;20724;-85
2023/12/29 03:12:48;;;;;;;0.43;0.43;;;8.60;99.90;;;;;;5031469;28;20429;-85
2023/12/29 03:15:14;;;;;;;0.40;0.40;;;8.70;99.90;;;;;;5028657;28;20807;-86
2023/12/29 03:17:40;;;;;;;0.50;0.50;;;8.80;99.90;;;;;;5029064;28;20180;-85
2023/12/29 03:20:07;;;;;;;1.33;1.03;;;8.70;99.90;;;;;;5024659;28;20199;-85
2023/12/29 03:22:33;;;;;;;0.40;0.40;;;8.70;99.90;;;;;;5030234;28;20687;-84
2023/12/29 03:24:58;;;;;;;0.43;0.43;;;8.80;99.90;;;;;;5033784;28;20430;-85
2023/12/29 03:27:24;;;;;;;1.63;1.53;;;9.00;99.90;;;;;;5029958;28;20283;-85
2023/12/29 03:29:49;;;;;;;2.30;0.77;;;9.00;99.90;;;;;;5030124;28;20302;-85
2023/12/29 03:32:15;;;;;;;0.40;0.40;;;9.10;99.90;;;;;;5029875;28;20647;-85
2023/12/29 03:34:41;;;;;;;0.40;0.40;;;9.10;99.90;;;;;;5030865;28;20176;-85
2023/12/29 03:37:06;;;;;;;0.50;0.50;;;9.10;99.90;;;;;;5021461;28;20428;-85
2023/12/29 03:39:35;;;;;;;0.43;0.43;;;9.10;99.90;;;;;;5024015;28;20220;-87
2023/12/29 03:42:01;;;;;;;0.70;0.70;;;9.20;99.90;;;;;;5025725;28;20179;-85
2023/12/29 03:44:26;;;;;;;0.80;0.80;;;9.20;99.90;;;;;;5042285;28;20444;-85
2023/12/29 03:46:52;;;;;;;0.50;0.50;;;9.20;99.90;;;;;;5029251;28;20952;-85
2023/12/29 03:49:17;;;;;;;2.93;1.30;;;9.20;99.90;;;;;;5013638;28;20685;-86
2023/12/29 03:51:43;;;;;;;0.40;0.40;;;9.20;99.90;;;;;;5038545;28;20181;-85
2023/12/29 03:54:08;;;;;;;0.50;0.50;;;9.10;99.90;;;;;;5033115;28;20183;-85
2023/12/29 03:56:34;;;;;;;0.90;0.90;;;9.20;99.90;;;;;;5026194;28;20191;-86
2023/12/29 03:58:59;;;;;;;0.87;0.57;;;9.20;99.90;;;;;;5029046;28;20187;-83
2023/12/29 04:01:25;;;;;;;0.50;0.50;;;9.10;99.90;;;;;;5028636;28;20191;-86
2023/12/29 04:03:50;;;;;;;0.40;0.40;;;9.10;99.90;;;;;;5043170;28;20178;-85
2023/12/29 04:06:16;;;;;;;0.40;0.40;;;9.10;99.90;;;;;;5013473;28;20184;-85
2023/12/29 04:08:41;;;;;;;0.40;0.40;;;9.10;99.90;;;;;;5026303;28;20223;-85
2023/12/29 04:11:07;;;;;;;0.40;0.40;;;9.10;99.90;;;;;;5030875;28;20190;-85
2023/12/29 04:13:32;;;;;;;0.47;0.47;;;9.10;99.90;;;;;;5022246;28;20188;-85
2023/12/29 04:15:58;;;;;;;0.47;0.47;;;9.10;99.90;;;;;;5021420;28;20239;-85
2023/12/29 04:18:24;;;;;;;0.93;0.93;;;9.10;99.90;;;;;;5042072;28;20187;-86
2023/12/29 04:20:50;;;;;;;0.40;0.40;;;9.10;99.90;;;;;;5029780;28;20266;-86
2023/12/29 04:23:16;;;;;;;0.60;0.60;;;9.10;99.90;;;;;;5028581;28;20477;-86
2023/12/29 04:25:42;;;;;;;0.40;0.40;;;9.10;99.90;;;;;;5028259;28;20958;-86
2023/12/29 04:28:07;;;;;;;0.50;0.50;;;9.00;99.90;;;;;;5037681;28;20497;-86
2023/12/29 04:30:33;;;;;;;0.40;0.40;;;9.00;99.90;;;;;;5029085;28;20316;-84
2023/12/29 04:32:59;;;;;;;0.40;0.40;;;9.00;99.90;;;;;;5015054;28;20181;-86
2023/12/29 04:35:24;;;;;;;0.40;0.40;;;9.00;99.90;;;;;;4995856;28;20444;-86
2023/12/29 04:37:51;;;;;;;0.40;0.40;;;9.00;99.90;;;;;;5036126;28;20182;-83
2023/12/29 04:40:16;;;;;;;0.87;0.87;;;8.90;99.90;;;;;;5027496;28;20662;-85
2023/12/29 04:42:42;;;;;;;0.40;0.40;;;8.90;99.90;;;;;;5037869;28;20461;-83
2023/12/29 04:45:10;;;;;;;0.40;0.40;;;8.90;99.90;;;;;;5011600;28;20439;-85
2023/12/29 04:47:35;;;;;;;0.60;0.60;;;8.90;99.90;;;;;;5021810;28;20196;-84
2023/12/29 04:50:01;;;;;;;0.40;0.40;;;9.00;99.90;;;;;;5019005;28;20532;-85
2023/12/29 04:52:27;;;;;;;0.80;0.80;;;8.90;99.90;;;;;;5034976;28;20192;-85
2023/12/29 04:54:52;;;;;;;0.40;0.40;;;8.90;99.90;;;;;;5032564;28;20434;-84
2023/12/29 04:57:18;;;;;;;0.40;0.40;;;8.90;99.90;;;;;;5019348;28;20201;-85
2023/12/29 04:59:43;;;;;;;0.53;0.53;;;8.90;99.90;;;;;;5022518;28;20182;-85
2023/12/29 05:02:09;;;;;;;0.80;0.80;;;8.90;99.90;;;;;;5035094;28;20202;-85
2023/12/29 05:04:35;;;;;;;0.90;0.90;;;9.00;99.90;;;;;;5035274;28;20191;-86
2023/12/29 05:07:00;;;;;;;0.50;0.50;;;9.00;99.90;;;;;;5039938;28;20184;-84
2023/12/29 05:09:26;;;;;;;0.40;0.40;;;8.90;99.90;;;;;;5031804;28;20304;-85
2023/12/29 05:11:51;;;;;;;1.40;0.97;;;9.00;99.90;;;;;;5018582;28;20183;-86
2023/12/29 05:14:17;;;;;;;0.40;0.40;;;9.00;99.90;;;;;;5034232;28;20237;-85
2023/12/29 05:16:42;;;;;;;0.40;0.40;;;9.00;99.90;;;;;;5047499;28;20296;-84
2023/12/29 05:19:08;;;;;;;0.40;0.40;;;8.90;99.90;;;;;;5043533;28;20194;-85
2023/12/29 05:21:34;;;;;;;0.40;0.40;;;8.90;99.90;;;;;;5016048;28;20765;-86
2023/12/29 05:23:59;;;;;;;0.40;0.40;;;8.80;99.90;;;;;;5036869;28;20201;-85
2023/12/29 05:26:25;;;;;;;0.40;0.40;;;8.90;99.90;;;;;;5027317;28;20191;-87
2023/12/29 05:28:51;;;;;;;0.40;0.40;;;8.90;99.90;;;;;;5017920;28;20276;-86
2023/12/29 05:31:16;;;;;;;0.30;0.30;;;8.70;99.90;;;;;;5023402;28;20613;-86
2023/12/29 05:33:43;;;;;;;0.20;0.20;;;8.60;99.90;;;;;;5018046;28;20187;-86
2023/12/29 05:36:10;;;;;;;0.20;0.20;;;8.50;99.90;;;;;;5028743;28;20217;-85
2023/12/29 05:38:36;;;;;;;0.20;0.20;;;8.60;99.90;;;;;;5035438;28;20426;-86
2023/12/29 05:41:04;;;;;;;0.20;0.20;;;8.60;99.90;;;;;;5021157;28;21213;-85
2023/12/29 05:43:31;;;;;;;0.20;0.20;;;8.50;99.90;;;;;;5026841;28;20482;-86
2023/12/29 05:45:56;;;;;;;0.20;0.20;;;8.50;99.90;;;;;;5016342;28;20430;-85
2023/12/29 05:48:22;;;;;;;0.20;0.20;;;8.50;99.90;;;;;;5031366;28;20476;-84
2023/12/29 05:50:47;;;;;;;0.20;0.20;;;8.60;99.90;;;;;;5024110;28;20200;-85
2023/12/29 05:53:15;;;;;;;0.20;0.20;;;8.60;99.90;;;;;;5021138;28;20184;-85
2023/12/29 05:55:40;;;;;;;0.20;0.20;;;8.60;99.90;;;;;;5010928;28;20245;-84
2023/12/29 05:58:06;;;;;;;0.20;0.20;;;8.60;99.90;;;;;;5026275;28;20431;-85
2023/12/29 06:00:31;;;;;;;0.20;0.20;;;8.50;99.90;;;;;;5029047;28;20187;-85
2023/12/29 06:02:57;;;;;;;0.20;0.20;;;8.50;99.90;;;;;;5029940;28;20199;-85
2023/12/29 06:05:23;;;;;;;0.30;0.30;;;8.50;99.90;;;;;;5013756;28;20184;-85
2023/12/29 06:07:48;;;;;;;0.20;0.20;;;8.50;99.90;;;;;;5036273;28;20834;-85
2023/12/29 06:10:14;;;;;;;0.20;0.20;;;8.50;99.90;;;;;;5028703;28;20297;-85
2023/12/29 06:12:39;;;;;;;0.20;0.20;;;8.40;99.90;;;;;;5020054;28;20232;-85
2023/12/29 06:15:05;;;;;;;0.20;0.20;;;8.30;99.90;;;;;;5024341;28;20278;-85
2023/12/29 06:17:31;;;;;;;0.20;0.20;;;8.20;99.90;;;;;;5008115;28;20274;-86
2023/12/29 06:19:56;;;;;;;0.20;0.20;;;8.20;99.90;;;;;;5019914;28;20909;-85
2023/12/29 06:22:22;;;;;;;0.20;0.20;;;8.20;99.90;;;;;;5029531;28;20204;-83
2023/12/29 06:24:47;;;;;;;0.20;0.20;;;8.20;99.90;;;;;;5035579;28;20178;-86
2023/12/29 06:27:13;;;;;;;0.20;0.20;;;8.20;99.90;;;;;;5017407;28;20192;-86
2023/12/29 06:29:41;;;;;;;0.20;0.20;;;8.20;99.90;;;;;;5036076;28;20572;-86
2023/12/29 06:32:06;;;;;;;0.20;0.20;;;8.10;99.90;;;;;;5027261;28;20188;-85
2023/12/29 06:34:32;;;;;;;0.20;0.20;;;8.00;99.90;;;;;;5026945;28;21155;-86
2023/12/29 06:36:57;;;;;;;0.20;0.20;;;8.00;99.90;;;;;;5012886;28;20211;-83
2023/12/29 06:39:23;;;;;;;0.20;0.20;;;8.10;99.90;;;;;;5026633;28;20175;-85
2023/12/29 06:41:48;;;;;;;0.20;0.20;;;8.10;99.90;;;;;;5031935;28;20222;-85
2023/12/29 06:44:14;;;;;;;0.20;0.20;;;8.10;99.90;;;;;;5040014;28;20177;-84
2023/12/29 06:46:40;;;;;;;0.30;0.30;;;8.20;99.90;;;;;;5021919;28;20244;-85
2023/12/29 06:49:08;;;;;;;0.30;0.30;;;8.20;99.90;;;;;;5018564;28;20219;-85
2023/12/29 06:51:35;;;;;;;0.20;0.20;;;8.20;99.90;;;;;;5030990;28;20180;-85
2023/12/29 06:54:01;;;;;;;0.20;0.20;;;8.20;99.90;;;;;;5029800;28;20430;-85
2023/12/29 06:56:26;;;;;;;0.20;0.20;;;8.30;99.90;;;;;;5031171;28;21013;-86
2023/12/29 06:58:52;;;;;;;0.20;0.20;;;8.30;99.90;;;;;;5024322;28;20524;-86
2023/12/29 07:01:17;;;;;;;0.20;0.20;;;8.30;99.90;;;;;;5027390;28;20246;-83
2023/12/29 07:03:43;;;;;;;0.20;0.20;;;8.30;99.90;;;;;;5022061;28;20183;-85
2023/12/29 07:06:10;;;;;;;0.20;0.20;;;8.30;99.90;;;;;;5003032;28;20185;-85
2023/12/29 07:08:35;;;;;;;0.20;0.20;;;8.30;99.90;;;;;;5030442;28;20550;-86
2023/12/29 07:11:01;;;;;;;0.10;0.10;;;8.30;99.90;;;;;;5037907;28;20921;-86
2023/12/29 07:13:27;;;;;;;0.20;0.20;;;8.40;99.90;;;;;;5033051;28;20243;-86
2023/12/29 07:15:52;;;;;;;0.20;0.20;;;8.50;99.90;;;;;;5030294;28;20673;-85
2023/12/29 07:18:18;;;;;;;0.20;0.20;;;8.50;99.90;;;;;;5024882;28;20183;-85
2023/12/29 07:20:43;;;;;;;0.20;0.20;;;8.60;99.90;;;;;;5029126;28;20306;-86
2023/12/29 07:23:09;;;;;;;0.20;0.20;;;8.60;99.90;;;;;;5003035;28;20195;-85
2023/12/29 07:25:34;;;;;;;0.20;0.20;;;8.60;99.90;;;;;;5028080;28;20269;-85
2023/12/29 07:28:12;;;;;;;0.20;0.20;;;8.50;99.90;;;;;;5026981;28;20193;-85
2023/12/29 07:30:38;;;;;;;0.20;0.20;;;8.70;99.90;;;;;;5032062;28;20195;-85
2023/12/29 07:33:04;;;;;;;0.20;0.20;;;8.60;99.90;;;;;;5045687;28;20506;-90
2023/12/29 07:35:29;;;;;;;0.20;0.20;;;8.70;99.90;;;;;;5030141;28;20191;-92
2023/12/29 07:37:55;;;;;;;0.20;0.20;;;8.80;99.90;;;;;;5031741;28;20190;-87
2023/12/29 07:40:20;;;;;;;0.20;0.20;;;8.60;99.90;;;;;;5029121;28;20215;-85
2023/12/29 07:42:50;;;;;;;0.20;0.20;;;8.60;99.90;;;;;;5023716;28;20197;-86
2023/12/29 07:45:15;;;;;;;0.20;0.20;;;8.60;99.90;;;;;;5014130;28;20640;-85
2023/12/29 07:47:41;;;;;;;0.20;0.20;;;8.50;99.90;;;;;;5002177;28;20450;-86
2023/12/29 07:50:07;;;;;;;0.20;0.20;;;8.50;99.90;;;;;;5023134;28;20234;-85
2023/12/29 07:52:32;;;;;;;0.20;0.20;;;8.50;99.90;;;;;;5017417;28;20445;-87
2023/12/29 07:54:58;;;;;;;0.20;0.20;;;8.50;99.90;;;;;;5028491;28;20192;-85
2023/12/29 07:57:24;;;;;;;0.20;0.20;;;8.40;99.90;;;;;;5020919;28;20716;-86
2023/12/29 07:59:49;;;;;;;0.20;0.20;;;8.40;99.90;;;;;;5024254;28;20191;-86
2023/12/29 08:02:15;;;;;;;0.17;0.17;;;8.40;99.90;;;;;;5021156;28;20211;-86
2023/12/29 08:04:40;;;;;;;0.20;0.20;;;8.50;99.90;;;;;;5021704;28;20339;-87
2023/12/29 08:07:06;;;;;;;0.20;0.20;;;8.50;99.90;;;;;;5020715;28;20200;-85
2023/12/29 08:09:32;;;;;;;0.20;0.20;;;8.60;99.90;;;;;;5021696;28;20231;-85
2023/12/29 08:11:57;;;;;;;0.20;0.20;;;8.60;99.90;;;;;;5020367;28;20198;-85
2023/12/29 08:14:23;;;;;;;0.20;0.20;;;8.60;99.90;;;;;;5003181;28;20207;-85
2023/12/29 08:16:48;;;;;;;0.20;0.20;;;8.60;99.90;;;;;;5016978;28;20225;-85
2023/12/29 08:19:15;;;;;;;0.20;0.20;;;8.60;99.90;;;;;;5014940;28;20249;-87
2023/12/29 08:21:41;;;;;;;0.20;0.20;;;8.60;99.90;;;;;;5020078;28;20696;-84
2023/12/29 08:24:06;;;;;;;0.20;0.20;;;8.50;99.90;;;;;;5029392;28;20431;-84
2023/12/29 08:26:32;;;;;;;0.20;0.20;;;8.40;99.90;;;;;;5010191;28;20203;-83
2023/12/29 08:28:58;;;;;;;0.20;0.20;;;8.50;99.90;;;;;;5017501;28;20218;-83
2023/12/29 08:31:23;;;;;;;0.20;0.20;;;8.60;99.90;;;;;;5025130;28;20195;-83
2023/12/29 08:33:49;;;;;;;0.20;0.20;;;8.60;99.90;;;;;;5019511;28;20183;-85
2023/12/29 08:36:18;;;;;;;0.20;0.20;;;8.60;99.90;;;;;;5018808;28;20192;-84
2023/12/29 08:38:44;;;;;;;0.20;0.20;;;8.60;99.90;;;;;;5025916;28;20195;-84
2023/12/29 08:41:09;;;;;;;0.20;0.20;;;8.70;99.90;;;;;;5026959;28;20509;-84
2023/12/29 08:43:36;;;;;;;0.20;0.20;;;8.60;99.90;;;;;;5005287;28;20175;-84
2023/12/29 08:46:01;;;;;;;0.20;0.20;;;8.70;99.90;;;;;;5019396;28;20650;-84
2023/12/29 08:48:27;;;;;;;0.20;0.20;;;8.70;99.90;;;;;;5020150;28;20519;-83
2023/12/29 08:50:53;;;;;;;0.20;0.20;;;8.70;99.90;;;;;;4998075;28;20231;-85
2023/12/29 08:53:18;;;;;;;0.20;0.20;;;8.70;99.90;;;;;;5027328;28;20183;-83
2023/12/29 08:55:44;;;;;;;0.20;0.20;;;8.70;99.90;;;;;;5021943;28;20195;-84
2023/12/29 08:58:10;;;;;;;0.20;0.20;;;8.80;99.90;;;;;;5014963;28;20211;-84
2023/12/29 09:00:36;;;;;;;0.20;0.20;;;8.80;99.90;;;;;;5022878;28;20196;-83
2023/12/29 09:03:02;;;;;;;0.20;0.20;;;8.80;99.90;;;;;;4996824;28;20433;-84
2023/12/29 09:05:28;;;;;;;0.20;0.20;;;8.70;99.90;;;;;;5022067;28;20175;-84
2023/12/29 09:07:54;;;;;;;0.20;0.20;;;8.70;99.90;;;;;;5010984;28;20769;-84
2023/12/29 09:10:21;;;;;;;0.20;0.20;;;8.70;99.90;;;;;;5023386;28;20226;-85
2023/12/29 09:12:46;;;;;;;0.20;0.20;;;8.60;99.90;;;;;;5019465;28;20476;-84
2023/12/29 09:15:12;;;;;;;0.20;0.20;;;8.60;99.90;;;;;;5018430;28;20441;-85
2023/12/29 09:17:37;;;;;;;0.20;0.20;;;8.60;99.90;;;;;;5006266;28;20219;-85
2023/12/29 09:20:03;;;;;;;0.20;0.20;;;8.60;99.90;;;;;;5002783;28;20180;-84
2023/12/29 09:22:29;;;;;;;0.20;0.20;;;8.60;99.90;;;;;;5016657;28;20195;-85
2023/12/29 09:24:55;;;;;;;0.20;0.20;;;8.60;99.90;;;;;;5029033;28;20823;-85
2023/12/29 09:27:21;;;;;;;0.20;0.20;;;8.70;99.90;;;;;;5026612;28;20207;-84
2023/12/29 09:29:46;;;;;;;0.20;0.20;;;8.70;99.90;;;;;;5004690;28;20555;-86
2023/12/29 09:32:13;;;;;;;0.20;0.20;;;8.70;99.90;;;;;;5027964;28;20188;-85
2023/12/29 09:34:39;;;;;;;0.20;0.20;;;8.70;99.90;;;;;;5026626;28;20185;-87
2023/12/29 09:37:04;;;;;;;0.20;0.20;;;8.90;99.90;;;;;;5030456;28;20966;-84
2023/12/29 09:39:31;;;;;;;0.20;0.20;;;8.90;99.90;;;;;;5029482;28;20192;-84
2023/12/29 09:42:00;;;;;;;0.20;0.20;;;8.90;99.90;;;;;;5025520;28;20174;-84
2023/12/29 09:44:28;;;;;;;0.20;0.20;;;9.00;99.90;;;;;;5026876;28;20957;-84
2023/12/29 09:46:54;;;;;;;0.20;0.20;;;9.00;99.90;;;;;;5029376;28;20446;-82
2023/12/29 09:49:20;;;;;;;0.20;0.20;;;9.10;99.90;;;;;;5022473;28;20577;-83
2023/12/29 09:51:47;;;;;;;0.20;0.20;;;9.00;99.90;;;;;;5022903;28;20932;-84
2023/12/29 09:54:13;;;;;;;0.20;0.20;;;9.10;99.90;;;;;;5026567;28;20453;-83
2023/12/29 09:56:39;;;;;;;0.20;0.20;;;9.20;99.90;;;;;;5029295;28;20462;-82
2023/12/29 09:59:08;;;;;;;0.20;0.20;;;9.30;99.90;;;;;;5031323;28;20465;-84
2023/12/29 10:01:34;;;;;;;0.20;0.20;;;9.40;99.90;;;;;;5020454;28;20440;-85
2023/12/29 10:04:03;;;;;;;0.20;0.20;;;9.70;99.90;;;;;;5008857;28;20458;-84
2023/12/29 10:06:34;;;;;;;0.20;0.20;;;9.60;99.90;;;;;;5031338;28;20433;-84
2023/12/29 10:09:03;;;;;;;0.20;0.20;;;9.60;99.90;;;;;;5027447;28;20493;-84
2023/12/29 10:11:31;;;;;;;0.20;0.20;;;9.50;99.90;;;;;;5021659;28;20968;-83
2023/12/29 10:14:03;;;;;;;0.20;0.20;;;9.50;99.90;;;;;;5025349;28;20445;-82
2023/12/29 10:16:35;;;;;;;0.20;0.20;;;9.40;99.90;;;;;;5005359;28;20439;-83
2023/12/29 10:19:21;;;;;;;0.20;0.20;;;9.40;99.90;;;;;;5025035;28;20450;-85
2023/12/29 10:22:03;;;;;;;0.20;0.20;;;9.40;99.90;;;;;;5024874;28;20458;-84
2023/12/29 10:24:29;;;;;;;0.20;0.20;;;9.60;99.90;;;;;;5021197;28;20867;-86
2023/12/29 10:26:55;;;;;;;0.20;0.20;;;9.70;99.90;;;;;;5020733;28;20446;-83
2023/12/29 10:29:22;;;;;;;0.20;0.20;;;9.80;99.90;;;;;;5024045;28;20462;-84
2023/12/29 10:31:48;;;;;;;0.17;0.17;;;9.70;99.90;;;;;;5025602;28;20950;-84
2023/12/29 10:34:31;;;;;;;0.20;0.20;;;10.00;99.90;;;;;;5001702;28;20426;-84
2023/12/29 10:36:58;;;;;;;0.10;0.10;;;10.30;99.90;;;;;;5023871;28;20431;-84
2023/12/29 10:39:24;;;;;;;0.10;0.10;;;10.30;99.90;;;;;;5023829;28;20414;-83
2023/12/29 10:42:01;;;;;;;0.20;0.20;;;10.30;99.90;;;;;;5026384;28;20435;-83
2023/12/29 10:44:27;;;;;;;0.10;0.10;;;10.20;99.90;;;;;;5021617;28;20445;-84
2023/12/29 10:46:53;;;;;;;0.10;0.10;;;10.20;99.90;;;;;;5028043;28;20446;-83
2023/12/29 10:49:18;;;;;;;0.10;0.10;;;10.20;99.90;;;;;;5005535;28;20229;-83
2023/12/29 10:51:44;;;;;;;0.10;0.10;;;10.10;99.90;;;;;;5016967;28;20186;-82
2023/12/29 10:54:19;;;;;;;0.20;0.20;;;9.80;99.90;;;;;;5026879;28;20197;-84
2023/12/29 10:56:45;;;;;;;0.10;0.10;;;9.70;99.90;;;;;;5008670;28;20179;-82
2023/12/29 10:59:12;;;;;;;0.20;0.20;;;9.50;99.90;;;;;;5016626;28;20435;-84
2023/12/29 11:01:38;;;;;;;0.10;0.10;;;9.60;99.90;;;;;;5014947;28;20180;-84
2023/12/29 11:04:05;;;;;;;0.20;0.20;;;9.60;99.90;;;;;;5013259;28;20422;-84
2023/12/29 11:06:41;;;;;;;0.20;0.20;;;9.70;99.90;;;;;;5008215;28;20192;-83
2023/12/29 11:09:06;;;;;;;0.20;0.20;;;9.50;99.90;;;;;;5019275;28;20488;-83
2023/12/29 11:11:35;;;;;;;0.20;0.20;;;9.50;99.90;;;;;;5019313;28;20423;-84
2023/12/29 11:14:02;;;;;;;0.20;0.20;;;9.40;99.90;;;;;;5020629;28;20644;-84
2023/12/29 11:16:29;;;;;;;0.20;0.20;;;9.40;99.90;;;;;;5025658;28;20484;-85
2023/12/29 11:18:56;;;;;;;0.20;0.20;;;9.40;99.90;;;;;;5024929;28;20467;-85
2023/12/29 11:21:25;;;;;;;0.10;0.10;;;9.80;99.90;;;;;;5016035;28;20963;-90
2023/12/29 11:23:50;;;;;;;0.10;0.10;;;9.70;99.90;;;;;;5005112;28;20455;-87
2023/12/29 11:26:17;;;;;;;0.20;0.20;;;9.60;99.90;;;;;;4992884;28;20910;-87
2023/12/29 11:28:46;;;;;;;0.20;0.20;;;9.60;99.90;;;;;;5009904;28;20208;-87
2023/12/29 11:31:11;;;;;;;0.20;0.20;;;9.50;99.90;;;;;;5004158;28;20445;-89
2023/12/29 11:33:43;;;;;;;0.20;0.20;;;9.50;99.90;;;;;;4995327;28;20525;-90
2023/12/29 11:36:26;;;;;;;0.10;0.10;;;9.40;99.90;;;;;;5001611;28;20217;-88
2023/12/29 11:39:05;;;;;;;0.20;0.20;;;9.50;99.90;;;;;;5007702;28;20442;-87
2023/12/29 11:41:42;;;;;;;0.20;0.20;;;9.70;99.90;;;;;;5004598;28;20522;-86
2023/12/29 11:44:07;;;;;;;0.20;0.20;;;10.20;99.90;;;;;;5002607;28;20493;-87
2023/12/29 11:46:44;;;;;;;0.20;0.20;;;10.60;99.90;;;;;;5004169;28;20914;-87
2023/12/29 11:49:10;;;;;;;0.10;0.10;;;11.00;99.90;;;;;;5008208;28;20216;-89
2023/12/29 11:51:40;;;;;;;0.10;0.10;;;10.80;99.90;;;;;;4990102;28;20943;-87
2023/12/29 11:54:07;;;;;;;0.10;0.10;;;10.90;99.90;;;;;;5001493;28;20890;-88
2023/12/29 11:56:38;;;;;;;0.10;0.10;;;10.90;99.90;;;;;;5005641;28;20439;-85
2023/12/29 11:59:16;;;;;;;0.10;0.10;;;11.00;99.90;;;;;;5004145;28;20443;-86
2023/12/29 12:01:42;;;;;;;0.10;0.10;;;10.90;99.90;;;;;;5000041;28;20436;-87
2023/12/29 12:04:33;;;;;;;0.10;0.10;;;10.80;99.90;;;;;;4994047;28;20435;-88
2023/12/29 12:06:59;;;;;;;0.10;0.10;;;10.60;99.90;;;;;;5004580;28;20453;-86
2023/12/29 12:09:24;;;;;;;0.10;0.10;;;10.10;99.90;;;;;;5006580;28;20562;-85
2023/12/29 12:11:50;;;;;;;0.10;0.10;;;9.80;99.90;;;;;;5000341;28;20211;-89
2023/12/29 12:14:50;;;;;;;0.20;0.20;;;9.80;99.90;;;;;;4999564;28;20272;-86
2023/12/29 12:17:35;;;;;;;0.10;0.10;;;10.30;99.90;;;;;;5005566;28;20521;-87
2023/12/29 12:20:04;;;;;;;0.10;0.10;;;10.70;99.90;;;;;;4996500;28;20917;-87
2023/12/29 12:22:34;;;;;;;0.10;0.10;;;10.80;99.90;;;;;;5035677;28;20450;-86
2023/12/29 12:25:00;;;;;;;0.10;0.10;;;11.20;99.90;;;;;;5032175;28;20964;-88
2023/12/29 12:27:26;;;;;;;0.10;0.10;;;10.40;99.90;;;;;;5030483;28;20510;-85
2023/12/29 12:29:58;;;;;;;0.20;0.20;;;9.90;99.90;;;;;;5029890;28;20211;-87
2023/12/29 12:32:25;;;;;;;0.20;0.20;;;9.70;99.90;;;;;;5026845;28;20433;-87
2023/12/29 12:34:50;;;;;;;0.20;0.20;;;9.40;99.90;;;;;;5030442;28;20433;-88
2023/12/29 12:37:24;;;;;;;0.20;0.20;;;9.30;99.90;;;;;;5039725;28;20434;-83
2023/12/29 12:39:49;;;;;;;0.20;0.20;;;9.20;99.90;;;;;;5031465;28;20172;-85
2023/12/29 12:42:19;;;;;;;0.10;0.10;;;9.10;99.90;;;;;;5037093;28;20939;-88
2023/12/29 12:44:56;;;;;;;0.20;0.20;;;9.10;99.90;;;;;;5024078;28;20274;-86
2023/12/29 12:47:35;;;;;;;0.20;0.20;;;9.00;99.90;;;;;;5031674;28;20941;-88
2023/12/29 12:50:01;;;;;;;0.20;0.20;;;9.00;99.90;;;;;;5030836;28;20477;-86
2023/12/29 12:52:33;;;;;;;0.20;0.20;;;9.00;99.90;;;;;;5047688;28;20418;-86
2023/12/29 12:55:00;;;;;;;0.20;0.20;;;8.90;99.90;;;;;;5041818;28;20449;-88